Time;durP1;ratioP1;P1;durP2;ratioP2;P2;SDS_P1;SDS_P2;PMS_P1;PMS_P2;Temp;Humidity;BMP_temperature;BMP_pressure;BME280_temperature;BME280_humidity;BME280_pressure;Samples;Min_cycle;Max_cycle;Signal;HPM_P1;HPM_P2
2022/03/13 00:02:21;;;;;;;86.30;80.90;;;;;;;9.72;100.00;100612.64;1953274;73;26227;-76
2022/03/13 00:04:57;;;;;;;82.80;77.50;;;;;;;9.74;100.00;100605.70;1965204;72;26206;-76
2022/03/13 00:07:24;;;;;;;88.13;82.83;;;;;;;9.74;100.00;100612.64;1960047;72;26682;-75
2022/03/13 00:09:55;;;;;;;89.10;83.80;;;;;;;9.73;100.00;100606.81;1971578;72;26283;-75
2022/03/13 00:12:30;;;;;;;87.83;82.33;;;;;;;9.77;100.00;100608.45;1991870;72;26230;-75
2022/03/13 00:15:12;;;;;;;88.93;83.40;;;;;;;9.74;100.00;100604.88;1927492;74;26206;-75
2022/03/13 00:17:33;;;;;;;88.73;83.23;;;;;;;9.68;100.00;100609.61;1987951;71;26159;-75
2022/03/13 00:20:08;;;;;;;87.37;82.07;;;;;;;9.72;100.00;100604.31;1962593;72;26634;-75
2022/03/13 00:22:39;;;;;;;89.73;84.33;;;;;;;9.70;100.00;100607.95;1979386;72;26219;-75
2022/03/13 00:25:12;;;;;;;84.37;79.27;;;;;;;9.75;100.00;100594.89;1969904;72;26207;-75
2022/03/13 00:27:43;;;;;;;88.47;82.93;;;;;;;9.78;100.00;100599.86;1971037;72;26622;-75
2022/03/13 00:30:16;;;;;;;86.63;81.13;;;;;;;9.84;100.00;100602.86;1989182;72;26163;-75
2022/03/13 00:32:46;;;;;;;85.47;80.20;;;;;;;9.86;100.00;100601.19;1966994;72;26696;-75
2022/03/13 00:35:17;;;;;;;83.20;78.00;;;;;;;9.84;100.00;100602.86;1972015;72;26702;-75
2022/03/13 00:37:47;;;;;;;88.53;83.03;;;;;;;9.89;100.00;100601.45;1986902;72;26190;-75
2022/03/13 00:40:17;;;;;;;87.23;81.93;;;;;;;9.92;100.00;100595.90;1991895;72;26239;-75
2022/03/13 00:42:48;;;;;;;85.33;80.13;;;;;;;9.91;100.00;100601.16;1981612;72;26653;-75
2022/03/13 00:48:32;;;;;;;85.63;80.43;;;;;;;9.98;100.00;100584.47;2007818;71;32825;-75
2022/03/13 00:54:17;;;;;;;90.23;84.90;;;;;;;10.01;100.00;100584.47;2011682;71;33374;-76
2022/03/13 01:00:02;;;;;;;86.60;81.50;;;;;;;10.03;100.00;100574.72;1997367;71;32761;-74
2022/03/13 01:05:46;;;;;;;87.50;82.33;;;;;;;9.98;100.00;100573.92;2018589;71;32905;-75
2022/03/13 01:11:31;;;;;;;83.80;78.50;;;;;;;10.06;100.00;100564.98;2008029;71;32821;-76
2022/03/13 01:17:16;;;;;;;89.27;83.77;;;;;;;10.05;100.00;100561.38;2014788;71;32817;-77
2022/03/13 01:23:01;;;;;;;88.70;83.30;;;;;;;10.00;100.00;100554.50;2011254;70;32859;-77
2022/03/13 01:28:46;;;;;;;89.60;83.80;;;;;;;10.00;100.00;100542.02;2015293;71;32876;-78
2022/03/13 01:34:49;;;;;;;88.17;82.77;;;;;;;9.99;100.00;100533.41;2010231;71;32978;-77
2022/03/13 01:40:45;;;;;;;85.00;79.90;;;;;;;9.94;100.00;100538.16;2009931;71;33264;-79
2022/03/13 01:46:30;;;;;;;84.83;79.63;;;;;;;9.89;100.00;100521.55;2000709;71;32812;-75
2022/03/13 01:52:17;;;;;;;84.97;79.87;;;;;;;9.83;100.00;100522.72;2004568;71;32766;-77
2022/03/13 01:58:02;;;;;;;89.30;84.00;;;;;;;9.88;100.00;100517.14;2000399;71;33392;-75
2022/03/13 02:03:47;;;;;;;85.13;79.77;;;;;;;9.83;100.00;100497.75;2013293;71;32823;-75
2022/03/13 02:09:29;;;;;;;87.73;82.43;;;;;;;9.87;100.00;100483.02;2011566;71;33473;-83
2022/03/13 02:15:14;;;;;;;86.97;81.77;;;;;;;9.90;100.00;100475.49;2014869;71;32880;-76
2022/03/13 02:21:00;;;;;;;89.20;83.80;;;;;;;9.82;100.00;100477.50;2014971;71;32821;-84
2022/03/13 02:26:47;;;;;;;87.40;82.27;;;;;;;9.88;100.00;100462.45;2015104;71;32800;-86
2022/03/13 02:32:32;;;;;;;87.27;82.07;;;;;;;9.87;100.00;100461.38;2013517;71;33317;-77
2022/03/13 02:38:16;;;;;;;87.00;81.80;;;;;;;9.90;100.00;100458.02;2008575;71;33231;-86
2022/03/13 02:44:00;;;;;;;84.77;79.70;;;;;;;9.91;100.00;100457.73;2014871;71;32869;-75
2022/03/13 02:50:09;;;;;;;86.60;81.20;;;;;;;9.92;100.00;100444.70;2011305;71;33313;-75
2022/03/13 02:55:53;;;;;;;88.40;83.00;;;;;;;9.88;100.00;100440.27;2016882;71;32864;-76
2022/03/13 03:01:39;;;;;;;84.00;78.90;;;;;;;9.88;100.00;100435.30;2002622;71;32833;-82
2022/03/13 03:07:24;;;;;;;87.57;82.07;;;;;;;9.90;100.00;100435.83;2000670;71;32760;-78
2022/03/13 03:13:10;;;;;;;84.37;79.20;;;;;;;9.94;100.00;100425.80;2016725;71;32831;-75
2022/03/13 03:18:54;;;;;;;85.47;80.10;;;;;;;9.92;100.00;100418.34;2016564;71;32819;-75
2022/03/13 03:24:39;;;;;;;84.67;79.27;;;;;;;9.96;100.00;100417.47;1995468;71;32816;-83
2022/03/13 03:30:27;;;;;;;86.97;81.60;;;;;;;9.85;100.00;100413.12;2002847;71;32756;-76
2022/03/13 03:36:15;;;;;;;87.80;82.50;;;;;;;9.81;100.00;100412.05;2014919;71;32944;-75
2022/03/13 03:42:02;;;;;;;87.50;82.07;;;;;;;9.84;100.00;100395.40;2013135;71;33292;-75
2022/03/13 03:47:46;;;;;;;89.03;83.53;;;;;;;9.81;100.00;100392.63;2018660;71;33480;-75
2022/03/13 03:53:31;;;;;;;85.60;80.30;;;;;;;9.85;100.00;100389.53;2013318;71;32859;-75
2022/03/13 03:59:16;;;;;;;83.53;78.10;;;;;;;9.94;100.00;100380.02;2016892;71;32879;-84
2022/03/13 04:05:00;;;;;;;80.50;75.43;;;;;;;9.95;100.00;100372.80;1974288;71;32927;-76
2022/03/13 04:10:45;;;;;;;81.97;76.77;;;;;;;10.02;100.00;100373.83;2013639;71;32836;-75
2022/03/13 04:16:29;;;;;;;87.57;82.07;;;;;;;10.03;100.00;100380.48;2000148;71;32904;-75
2022/03/13 04:22:14;;;;;;;83.00;77.77;;;;;;;10.05;100.00;100383.78;1991725;71;33304;-77
2022/03/13 04:27:58;;;;;;;80.20;74.93;;;;;;;10.13;100.00;100381.51;2016743;71;33070;-77
2022/03/13 04:33:42;;;;;;;82.40;77.10;;;;;;;10.05;100.00;100374.06;2016684;71;32888;-77
2022/03/13 04:39:27;;;;;;;88.07;82.37;;;;;;;10.09;100.00;100378.50;2013131;71;32927;-76
2022/03/13 04:45:13;;;;;;;85.57;79.77;;;;;;;10.02;100.00;100384.94;2014889;71;32831;-76
2022/03/13 04:50:57;;;;;;;86.93;81.03;;;;;;;9.98;100.00;100394.96;2009360;70;32928;-75
2022/03/13 04:56:44;;;;;;;88.30;82.37;;;;;;;9.85;100.00;100382.60;2000851;71;32786;-75
2022/03/13 05:02:28;;;;;;;81.50;75.80;;;;;;;9.79;100.00;100382.40;1942436;71;39605;-75
2022/03/13 05:08:13;;;;;;;80.07;74.40;;;;;;;9.79;100.00;100379.63;2000570;71;32849;-77
2022/03/13 05:13:58;;;;;;;82.63;76.83;;;;;;;9.67;100.00;100381.12;2004420;71;32763;-75
2022/03/13 05:19:44;;;;;;;79.77;74.17;;;;;;;9.58;100.00;100382.31;2015005;71;32837;-76
2022/03/13 05:25:31;;;;;;;83.60;77.63;;;;;;;9.56;100.00;100374.83;2016799;71;32882;-75
2022/03/13 05:31:16;;;;;;;80.33;74.53;;;;;;;9.59;100.00;100371.47;2009475;71;33343;-77
2022/03/13 05:37:01;;;;;;;77.37;71.67;;;;;;;9.51;100.00;100367.94;2016899;71;33488;-76
2022/03/13 05:42:46;;;;;;;78.07;72.37;;;;;;;9.58;100.00;100367.06;2015117;70;33306;-76
2022/03/13 05:48:31;;;;;;;75.27;69.67;;;;;;;9.55;100.00;100364.84;2016627;71;32954;-75
2022/03/13 05:54:16;;;;;;;71.73;66.20;;;;;;;9.56;100.00;100362.35;1998962;71;33320;-74
2022/03/13 06:00:01;;;;;;;72.53;67.10;;;;;;;9.54;100.00;100371.53;2015191;70;32901;-76
2022/03/13 06:05:45;;;;;;;74.43;68.97;;;;;;;9.53;100.00;100382.34;2002742;71;33353;-76
2022/03/13 06:11:31;;;;;;;79.00;73.30;;;;;;;9.55;100.00;100385.09;1997389;71;32902;-84
2022/03/13 06:17:16;;;;;;;75.37;69.77;;;;;;;9.50;100.00;100385.67;2009733;71;32907;-78
2022/03/13 06:23:01;;;;;;;71.47;65.97;;;;;;;9.49;100.00;100388.20;2016970;71;32973;-77
2022/03/13 06:28:45;;;;;;;74.23;68.83;;;;;;;9.47;100.00;100387.65;2013293;70;32899;-83
2022/03/13 06:34:30;;;;;;;69.30;64.07;;;;;;;9.57;100.00;100393.13;2016760;71;33002;-83
2022/03/13 06:40:20;;;;;;;71.13;65.83;;;;;;;9.55;100.00;100400.89;1995169;71;32888;-78
2022/03/13 06:46:04;;;;;;;71.80;66.40;;;;;;;9.55;100.00;100403.66;2004124;71;33519;-76
2022/03/13 06:51:50;;;;;;;70.50;64.93;;;;;;;9.59;100.00;100417.22;2017694;71;33409;-77
2022/03/13 06:57:35;;;;;;;79.90;74.40;;;;;;;9.63;100.00;100409.97;2006329;71;32885;-75
2022/03/13 07:03:22;;;;;;;75.43;69.83;;;;;;;9.66;100.00;100418.29;2003866;71;33441;-80
2022/03/13 07:09:07;;;;;;;74.13;68.40;;;;;;;9.67;100.00;100419.95;2016874;71;33302;-73
2022/03/13 07:14:55;;;;;;;74.83;69.23;;;;;;;9.68;100.00;100434.06;2013176;71;32969;-85
2022/03/13 07:20:37;;;;;;;74.03;68.27;;;;;;;9.78;100.00;100435.38;2005826;71;33467;-76
2022/03/13 07:26:22;;;;;;;70.33;64.97;;;;;;;9.80;100.00;100445.05;2018414;71;32981;-76
2022/03/13 07:32:08;;;;;;;76.70;71.20;;;;;;;9.92;100.00;100441.92;2016868;71;33011;-75
2022/03/13 07:37:53;;;;;;;70.83;65.70;;;;;;;9.89;100.00;100440.55;2013285;71;32913;-78
2022/03/13 07:43:37;;;;;;;73.13;67.40;;;;;;;9.86;100.00;100438.36;2003983;71;32876;-76
2022/03/13 07:49:21;;;;;;;77.20;71.30;;;;;;;10.00;100.00;100464.88;1991629;71;33292;-76
2022/03/13 07:55:07;;;;;;;86.03;80.03;;;;;;;10.03;100.00;100472.05;2009467;71;32886;-76
2022/03/13 08:00:53;;;;;;;83.67;77.87;;;;;;;10.03;100.00;100485.92;2004584;71;32843;-78
2022/03/13 08:06:39;;;;;;;79.97;74.13;;;;;;;10.00;100.00;100491.23;1997101;71;32776;-73
2022/03/13 08:12:23;;;;;;;72.07;66.47;;;;;;;10.06;100.00;100481.73;2017019;71;32922;-73
2022/03/13 08:18:10;;;;;;;77.50;71.43;;;;;;;10.21;100.00;100477.48;2013244;71;32858;-77
2022/03/13 08:23:55;;;;;;;71.37;65.37;;;;;;;10.43;100.00;100484.77;1995397;71;33292;-73
2022/03/13 08:29:39;;;;;;;68.40;62.73;;;;;;;10.73;100.00;100501.66;1998906;71;32772;-74
2022/03/13 08:35:25;;;;;;;75.00;69.23;;;;;;;10.74;100.00;100486.62;2016952;71;33297;-78
2022/03/13 08:41:10;;;;;;;77.23;71.03;;;;;;;10.73;100.00;100494.72;2007902;71;32941;-75
2022/03/13 08:46:54;;;;;;;76.23;70.07;;;;;;;10.88;100.00;100486.19;1994849;71;32990;-78
2022/03/13 08:52:39;;;;;;;77.93;71.80;;;;;;;10.87;100.00;100487.30;2003776;71;32887;-79
2022/03/13 08:58:25;;;;;;;75.13;69.23;;;;;;;11.11;100.00;100505.37;2000863;71;33435;-77
2022/03/13 09:04:10;;;;;;;83.33;77.07;;;;;;;11.26;100.00;100495.43;2014884;71;32915;-77
2022/03/13 09:09:54;;;;;;;74.60;68.60;;;;;;;11.47;100.00;100493.19;2009647;71;32900;-75
2022/03/13 09:15:39;;;;;;;80.93;74.53;;;;;;;11.66;100.00;100490.42;2015143;71;33621;-77
2022/03/13 09:21:23;;;;;;;75.73;69.80;;;;;;;11.89;100.00;100499.30;2002670;71;33321;-71
2022/03/13 09:27:08;;;;;;;83.57;77.73;;;;;;;11.98;100.00;100496.66;2015178;71;33428;-79
2022/03/13 09:32:52;;;;;;;71.53;66.07;;;;;;;11.93;100.00;100484.20;2000500;71;32936;-76
2022/03/13 09:38:36;;;;;;;74.17;68.47;;;;;;;12.00;100.00;100479.06;2000387;71;32869;-78
2022/03/13 09:44:21;;;;;;;75.83;70.23;;;;;;;11.97;100.00;100483.30;2011391;71;33791;-77
2022/03/13 09:50:07;;;;;;;76.00;70.00;;;;;;;11.84;100.00;100491.84;1997263;71;32788;-78
2022/03/13 09:55:51;;;;;;;77.50;71.73;;;;;;;11.98;100.00;100490.48;2016603;71;30903;-76
2022/03/13 10:01:36;;;;;;;74.23;68.40;;;;;;;11.90;100.00;100493.96;2010039;71;32767;-76
2022/03/13 10:07:20;;;;;;;73.10;67.70;;;;;;;12.06;100.00;100488.44;2000252;71;32958;-77
2022/03/13 10:13:05;;;;;;;72.83;67.07;;;;;;;11.99;100.00;100493.55;2005533;71;32911;-78
2022/03/13 10:18:58;;;;;;;79.90;74.03;;;;;;;12.17;100.00;100501.05;2000774;71;32880;-77
2022/03/13 10:24:45;;;;;;;67.97;62.70;;;;;;;12.02;100.00;100476.26;1909006;70;33094;-76
2022/03/13 10:30:32;;;;;;;70.57;65.30;;;;;;;12.41;100.00;100523.77;1997009;71;32784;-77
2022/03/13 10:36:19;;;;;;;70.07;64.73;;;;;;;12.48;100.00;100513.88;2018443;71;33412;-75
2022/03/13 10:42:10;;;;;;;73.87;68.63;;;;;;;12.39;100.00;100524.06;2000339;71;32976;-73
2022/03/13 10:47:59;;;;;;;67.47;62.93;;;;;;;12.67;100.00;100526.33;2005726;71;32833;-75
2022/03/13 10:53:44;;;;;;;69.10;64.03;;;;;;;12.61;100.00;100539.55;2001416;70;32911;-75
2022/03/13 10:59:29;;;;;;;74.77;69.47;;;;;;;12.52;100.00;100555.87;2000516;71;33330;-75
2022/03/13 11:05:27;;;;;;;72.10;66.90;;;;;;;12.46;100.00;100542.59;1968295;72;32916;-79
2022/03/13 11:11:16;;;;;;;69.20;64.23;;;;;;;12.56;100.00;100541.02;2011629;71;33199;-79
2022/03/13 11:16:57;;;;;;;69.97;64.90;;;;;;;12.64;100.00;100545.89;2016751;71;32937;-72
2022/03/13 11:22:41;;;;;;;72.10;67.00;;;;;;;13.06;100.00;100547.59;1994976;71;32902;-77
2022/03/13 11:28:28;;;;;;;72.13;67.10;;;;;;;12.86;100.00;100548.56;2016613;71;33379;-77
2022/03/13 11:34:16;;;;;;;74.97;69.87;;;;;;;12.82;100.00;100561.45;2000663;71;33300;-75
2022/03/13 11:40:04;;;;;;;76.77;71.27;;;;;;;12.76;100.00;100557.93;2014782;71;33377;-76
2022/03/13 11:46:04;;;;;;;75.03;69.87;;;;;;;12.75;100.00;100563.23;2000961;71;33262;-81
2022/03/13 11:51:51;;;;;;;70.00;65.10;;;;;;;12.79;100.00;100562.31;2009648;71;32914;-69
2022/03/13 11:58:08;;;;;;;67.53;63.03;;;;;;;13.00;100.00;100557.77;2004517;70;32782;-78
2022/03/13 12:04:27;;;;;;;73.77;68.87;;;;;;;12.91;100.00;100561.02;2006040;71;33306;-77
2022/03/13 12:10:32;;;;;;;75.13;70.07;;;;;;;12.67;100.00;100573.70;2000824;71;32834;-84
2022/03/13 12:16:29;;;;;;;69.90;65.17;;;;;;;12.48;100.00;100568.76;2003855;71;33519;-78
2022/03/13 12:22:16;;;;;;;69.80;65.33;;;;;;;12.45;100.00;100563.80;2017327;71;32888;-75
2022/03/13 12:28:06;;;;;;;71.37;66.27;;;;;;;12.63;100.00;100591.59;2009606;71;32903;-73
2022/03/13 12:33:53;;;;;;;71.10;66.03;;;;;;;12.63;100.00;100584.63;1994874;71;32807;-74
2022/03/13 12:39:49;;;;;;;76.47;71.00;;;;;;;12.45;100.00;100586.89;2014982;71;32900;-73
2022/03/13 12:45:41;;;;;;;76.03;70.83;;;;;;;12.50;100.00;100592.94;2004059;71;32895;-74
2022/03/13 12:51:34;;;;;;;68.53;63.70;;;;;;;12.57;100.00;100591.45;2007531;71;32931;-76
2022/03/13 12:57:21;;;;;;;73.43;68.53;;;;;;;12.45;100.00;100596.64;2016753;71;33030;-74
2022/03/13 13:03:07;;;;;;;73.57;68.13;;;;;;;12.12;100.00;100589.38;1998701;71;32938;-77
2022/03/13 13:08:53;;;;;;;75.27;69.97;;;;;;;12.10;100.00;100609.19;2012961;71;33003;-74
2022/03/13 13:14:45;;;;;;;72.23;67.17;;;;;;;12.16;100.00;100602.40;2002644;71;32780;-75
2022/03/13 13:20:31;;;;;;;76.03;70.83;;;;;;;12.28;100.00;100611.68;2009402;71;32837;-77
2022/03/13 13:26:42;;;;;;;76.07;70.90;;;;;;;12.18;100.00;100615.47;2007965;71;33001;-85
2022/03/13 13:32:28;;;;;;;73.90;68.87;;;;;;;12.08;100.00;100616.17;2005983;71;32872;-78
2022/03/13 13:38:23;;;;;;;81.10;75.47;;;;;;;12.14;100.00;100606.63;2009801;71;32935;-74
2022/03/13 13:44:30;;;;;;;77.77;72.37;;;;;;;12.18;100.00;100611.85;2011729;71;32764;-76
2022/03/13 13:50:24;;;;;;;75.63;70.63;;;;;;;12.10;100.00;100613.93;2005905;71;33414;-77
2022/03/13 13:56:16;;;;;;;71.90;66.97;;;;;;;12.22;100.00;100615.12;1999054;71;33317;-76
2022/03/13 14:02:15;;;;;;;73.70;68.60;;;;;;;12.39;100.00;100620.16;1991565;71;32830;-87
2022/03/13 14:08:05;;;;;;;74.17;69.17;;;;;;;12.44;100.00;100622.86;1998077;71;33344;-82
2022/03/13 14:13:50;;;;;;;71.33;66.47;;;;;;;12.47;100.00;100624.20;1999974;71;32894;-74
2022/03/13 14:19:36;;;;;;;73.50;68.50;;;;;;;12.39;100.00;100628.52;1995369;71;32772;-75
2022/03/13 14:25:21;;;;;;;74.63;69.53;;;;;;;12.42;100.00;100634.86;2011562;71;32929;-73
2022/03/13 14:31:06;;;;;;;69.97;65.10;;;;;;;12.21;100.00;100634.35;2009379;71;32883;-74
2022/03/13 14:36:58;;;;;;;70.87;66.00;;;;;;;12.46;100.00;100636.47;2015131;71;33378;-81
2022/03/13 14:42:39;;;;;;;72.27;67.33;;;;;;;12.53;100.00;100641.11;2016722;71;32845;-74
2022/03/13 14:48:25;;;;;;;69.87;65.13;;;;;;;12.31;100.00;100641.73;2016833;71;33337;-74
2022/03/13 14:54:11;;;;;;;72.83;68.13;;;;;;;12.49;100.00;100646.47;2018674;71;33340;-74
2022/03/13 14:59:58;;;;;;;70.67;66.00;;;;;;;12.51;100.00;100649.77;1995498;71;33430;-77
2022/03/13 15:05:42;;;;;;;72.33;67.67;;;;;;;12.54;100.00;100643.58;2016784;71;33388;-72
2022/03/13 15:11:27;;;;;;;68.83;64.20;;;;;;;12.56;100.00;100649.69;2014740;70;32837;-74
2022/03/13 15:17:11;;;;;;;66.63;62.33;;;;;;;12.73;100.00;100654.70;2008246;71;32759;-73
2022/03/13 15:22:56;;;;;;;66.60;61.63;;;;;;;12.83;100.00;100653.15;2011425;71;33311;-73
2022/03/13 15:28:40;;;;;;;66.13;62.03;;;;;;;12.87;100.00;100648.61;2004718;71;33209;-73
2022/03/13 15:34:27;;;;;;;62.73;58.77;;;;;;;12.70;100.00;100649.19;2002716;71;32855;-75
2022/03/13 15:40:14;;;;;;;61.33;57.53;;;;;;;12.71;100.00;100659.73;2015054;71;32912;-74
2022/03/13 15:45:58;;;;;;;63.40;59.37;;;;;;;12.71;100.00;100665.31;2016616;71;32808;-73
2022/03/13 15:51:43;;;;;;;62.80;58.87;;;;;;;12.57;100.00;100661.66;2011746;71;32867;-73
2022/03/13 15:57:28;;;;;;;64.93;60.73;;;;;;;12.60;100.00;100665.23;2015076;71;32869;-74
2022/03/13 16:03:12;;;;;;;65.17;61.07;;;;;;;12.50;100.00;100680.14;2006325;71;33343;-73
2022/03/13 16:08:57;;;;;;;65.60;61.60;;;;;;;12.69;100.00;100689.88;2014909;71;32888;-72
2022/03/13 16:14:42;;;;;;;65.37;60.77;;;;;;;12.67;100.00;100704.67;2005831;71;33416;-73
2022/03/13 16:20:29;;;;;;;66.73;62.53;;;;;;;12.63;100.00;100717.55;2013126;71;32888;-76
2022/03/13 16:26:15;;;;;;;62.20;58.50;;;;;;;12.56;100.00;100715.72;2015467;71;32955;-78
2022/03/13 16:31:59;;;;;;;63.23;59.30;;;;;;;12.89;100.00;100720.20;2007386;71;32897;-80
2022/03/13 16:37:47;;;;;;;66.50;62.17;;;;;;;12.57;100.00;100724.36;2014909;71;32876;-78
2022/03/13 16:43:32;;;;;;;66.37;62.40;;;;;;;12.61;100.00;100750.48;2014750;71;32930;-84
2022/03/13 16:49:16;;;;;;;66.47;62.57;;;;;;;12.40;100.00;100758.87;2011577;71;32860;-77
2022/03/13 16:55:01;;;;;;;68.90;64.57;;;;;;;12.20;100.00;100764.95;2013048;71;32995;-76
2022/03/13 17:00:50;;;;;;;74.70;70.00;;;;;;;12.19;100.00;100795.31;2013049;71;32881;-79
2022/03/13 17:06:35;;;;;;;70.93;66.53;;;;;;;12.26;100.00;100808.34;2003610;71;32913;-78
2022/03/13 17:12:20;;;;;;;76.90;72.13;;;;;;;12.13;100.00;100813.23;1996755;71;32785;-75
2022/03/13 17:18:05;;;;;;;72.07;67.53;;;;;;;11.95;100.00;100823.73;2015217;71;33521;-77
2022/03/13 17:23:51;;;;;;;92.83;85.80;;;;;;;11.89;100.00;100827.71;2014832;71;33460;-82
2022/03/13 17:29:37;;;;;;;77.00;72.20;;;;;;;11.80;100.00;100851.18;2007192;71;32843;-79
2022/03/13 17:35:26;;;;;;;80.03;74.53;;;;;;;11.78;100.00;100866.48;2009532;71;32827;-74
2022/03/13 17:41:11;;;;;;;109.37;100.23;;;;;;;11.75;100.00;100873.48;2005661;71;33002;-74
2022/03/13 17:46:55;;;;;;;74.40;69.70;;;;;;;11.65;100.00;100882.44;2010975;71;32971;-82
2022/03/13 17:52:41;;;;;;;76.00;71.03;;;;;;;11.45;100.00;100893.74;2017155;71;33552;-78
2022/03/13 17:58:26;;;;;;;76.30;71.17;;;;;;;11.39;100.00;100899.89;2004535;71;32814;-76
2022/03/13 18:04:10;;;;;;;79.73;74.60;;;;;;;11.27;100.00;100916.95;1990501;71;32761;-75
2022/03/13 18:09:55;;;;;;;77.57;72.37;;;;;;;11.24;100.00;100922.27;2001100;71;33297;-76
2022/03/13 18:15:39;;;;;;;74.77;69.97;;;;;;;11.21;100.00;100931.19;1997458;71;33220;-78
2022/03/13 18:21:24;;;;;;;74.90;69.40;;;;;;;11.15;100.00;100935.10;2000593;71;33025;-79
2022/03/13 18:27:08;;;;;;;75.83;70.63;;;;;;;11.09;100.00;100949.58;1991916;71;32936;-77
2022/03/13 18:32:53;;;;;;;74.67;69.50;;;;;;;10.99;100.00;100957.16;2004719;71;32841;-78
2022/03/13 18:38:40;;;;;;;75.17;70.03;;;;;;;11.01;100.00;100973.80;1991902;70;32769;-75
2022/03/13 18:44:24;;;;;;;76.10;70.90;;;;;;;10.88;100.00;100974.42;2004787;70;32766;-75
2022/03/13 18:50:10;;;;;;;76.87;71.63;;;;;;;10.88;100.00;100989.70;2008223;71;32775;-73
2022/03/13 18:55:55;;;;;;;77.73;72.07;;;;;;;10.74;100.00;101001.97;1997834;71;33327;-73
2022/03/13 19:01:40;;;;;;;77.23;71.83;;;;;;;10.72;100.00;101018.66;2012047;71;33328;-75
2022/03/13 19:07:24;;;;;;;76.70;70.87;;;;;;;10.58;100.00;101032.30;2004767;71;32957;-78
2022/03/13 19:13:11;;;;;;;74.07;68.53;;;;;;;10.58;100.00;101025.36;2016953;71;32835;-76
2022/03/13 19:19:09;;;;;;;75.07;69.67;;;;;;;10.58;100.00;101035.08;2000522;71;33071;-76
2022/03/13 19:24:41;;;;;;;73.07;67.40;;;;;;;10.56;100.00;101044.81;2011542;71;33315;-74
2022/03/13 19:30:27;;;;;;;78.73;73.10;;;;;;;10.39;100.00;101057.06;2006551;71;33256;-75
2022/03/13 19:36:12;;;;;;;78.80;72.93;;;;;;;10.45;100.00;101065.65;2010336;71;33382;-73
2022/03/13 19:41:57;;;;;;;80.00;74.27;;;;;;;10.27;100.00;101071.77;1997473;71;33302;-74
2022/03/13 19:47:43;;;;;;;80.30;74.37;;;;;;;10.20;100.00;101087.87;2009500;70;33433;-73
2022/03/13 19:53:27;;;;;;;80.33;74.30;;;;;;;10.23;100.00;101094.80;2018807;71;33399;-74
2022/03/13 19:59:14;;;;;;;80.43;74.07;;;;;;;10.20;100.00;101110.08;2004068;71;33364;-73
2022/03/13 20:04:58;;;;;;;77.53;71.83;;;;;;;9.99;100.00;101118.91;1995378;71;33353;-77
2022/03/13 20:10:42;;;;;;;83.30;77.17;;;;;;;9.99;100.00;101131.39;2002491;71;32967;-74
2022/03/13 20:16:27;;;;;;;80.70;74.80;;;;;;;9.87;100.00;101145.24;2018833;70;32833;-74
2022/03/13 20:22:13;;;;;;;78.73;72.53;;;;;;;9.58;100.00;101151.81;1999078;71;32840;-75
2022/03/13 20:27:57;;;;;;;75.67;69.67;;;;;;;9.56;100.00;101160.39;2003887;71;32897;-73
2022/03/13 20:33:42;;;;;;;74.67;68.77;;;;;;;9.46;100.00;101175.59;2004765;71;33227;-72
2022/03/13 20:39:26;;;;;;;75.10;68.93;;;;;;;9.28;100.00;101191.31;2005785;71;32837;-75
2022/03/13 20:45:13;;;;;;;74.97;69.07;;;;;;;9.27;100.00;101198.50;2014934;71;32941;-75
2022/03/13 20:50:57;;;;;;;71.80;65.80;;;;;;;9.13;100.00;101203.67;2008174;71;32826;-76
2022/03/13 20:56:42;;;;;;;72.40;66.20;;;;;;;9.09;100.00;101207.53;2016852;71;33314;-75
2022/03/13 21:02:28;;;;;;;74.63;68.70;;;;;;;8.91;100.00;101239.81;2000304;71;32847;-75
2022/03/13 21:08:12;;;;;;;75.00;69.07;;;;;;;8.73;100.00;101233.28;2013428;71;32899;-75
2022/03/13 21:13:58;;;;;;;74.13;68.07;;;;;;;8.73;100.00;101240.20;2014854;71;32988;-74
2022/03/13 21:19:43;;;;;;;71.03;64.93;;;;;;;8.53;100.00;101241.41;2004366;71;33002;-74
2022/03/13 21:25:27;;;;;;;75.33;68.87;;;;;;;8.57;100.00;101259.16;2004496;71;33377;-75
2022/03/13 21:31:12;;;;;;;71.60;65.73;;;;;;;8.52;100.00;101266.03;2013321;71;33344;-76
2022/03/13 21:36:57;;;;;;;76.47;70.13;;;;;;;8.39;100.00;101263.13;2005293;71;32841;-75
2022/03/13 21:42:42;;;;;;;72.43;66.30;;;;;;;8.39;100.00;101260.91;2013764;71;32838;-78
2022/03/13 21:48:27;;;;;;;72.70;66.73;;;;;;;8.48;100.00;101275.41;2009687;71;32900;-76
2022/03/13 21:54:12;;;;;;;73.13;67.17;;;;;;;8.45;100.00;101298.63;2000648;71;32831;-75
2022/03/13 21:59:57;;;;;;;68.60;62.73;;;;;;;8.36;100.00;101310.72;2009331;71;32860;-76
2022/03/13 22:05:44;;;;;;;74.60;68.67;;;;;;;8.19;100.00;101323.22;2016628;71;32908;-73
2022/03/13 22:11:29;;;;;;;71.80;65.80;;;;;;;8.24;100.00;101329.36;2004596;71;33312;-75
2022/03/13 22:17:14;;;;;;;77.90;71.93;;;;;;;8.02;100.00;101341.81;2018871;71;32913;-76
2022/03/13 22:22:58;;;;;;;70.83;65.20;;;;;;;8.09;100.00;101338.30;1996393;71;33411;-72
2022/03/13 22:28:42;;;;;;;73.13;67.23;;;;;;;8.07;100.00;101347.42;2014872;71;32830;-74
2022/03/13 22:34:26;;;;;;;72.00;66.20;;;;;;;7.85;100.00;101367.30;2008128;71;33426;-76
2022/03/13 22:40:15;;;;;;;71.43;65.57;;;;;;;7.61;100.00;101379.66;2016823;71;32897;-75
2022/03/13 22:45:59;;;;;;;71.43;65.77;;;;;;;7.45;100.00;101377.72;2001097;71;32875;-76
2022/03/13 22:51:44;;;;;;;71.03;65.17;;;;;;;7.63;100.00;101383.83;2003917;71;32907;-75
2022/03/13 22:57:29;;;;;;;69.53;63.63;;;;;;;7.44;100.00;101387.13;2006530;71;32778;-74
2022/03/13 23:03:14;;;;;;;71.03;65.13;;;;;;;7.38;100.00;101393.10;2015058;71;32936;-76
2022/03/13 23:08:58;;;;;;;71.07;64.40;;;;;;;7.11;100.00;101410.02;2000248;71;32831;-73
2022/03/13 23:14:45;;;;;;;67.50;61.57;;;;;;;7.17;100.00;101422.84;2010155;71;32880;-72
2022/03/13 23:20:32;;;;;;;67.53;62.03;;;;;;;7.17;100.00;101429.22;2006046;71;33353;-72
2022/03/13 23:26:17;;;;;;;68.83;63.00;;;;;;;7.12;100.00;101436.03;2002724;71;32829;-77
2022/03/13 23:32:01;;;;;;;68.00;62.20;;;;;;;7.41;100.00;101445.64;2017028;71;32829;-73
2022/03/13 23:37:45;;;;;;;72.03;66.03;;;;;;;7.36;100.00;101461.59;2004293;71;32883;-75
2022/03/13 23:43:31;;;;;;;68.10;62.37;;;;;;;7.87;100.00;101471.61;2016945;71;32855;-76
2022/03/13 23:49:15;;;;;;;72.33;66.43;;;;;;;8.03;100.00;101472.14;1995568;71;33245;-74
2022/03/13 23:54:59;;;;;;;69.10;63.33;;;;;;;7.36;100.00;101489.23;2006459;71;33277;-74
